createdAt,value
2022-09-03T00:01:59.066Z,17.40
2022-09-03T00:04:47.347Z,17.30
2022-09-03T00:07:43.118Z,17.30
2022-09-03T00:10:40.100Z,17.20
2022-09-03T00:13:10.754Z,17.20
2022-09-03T00:15:41.480Z,17.10
2022-09-03T00:18:23.451Z,17.20
2022-09-03T00:21:25.923Z,17.10
2022-09-03T00:23:55.630Z,17.10
2022-09-03T00:26:36.168Z,17.10
2022-09-03T00:29:23.307Z,17.10
2022-09-03T00:32:20.354Z,17.00
2022-09-03T00:35:03.542Z,17.00
2022-09-03T00:37:35.516Z,17.00
2022-09-03T00:40:50.977Z,16.90
2022-09-03T00:44:29.663Z,16.90
2022-09-03T00:47:53.167Z,16.90
2022-09-03T00:50:38.861Z,16.90
2022-09-03T00:54:15.395Z,16.70
2022-09-03T00:57:10.565Z,16.60
2022-09-03T01:00:13.951Z,16.80
2022-09-03T01:03:30.925Z,16.80
2022-09-03T01:06:43.680Z,16.70
2022-09-03T01:09:49.181Z,16.80
2022-09-03T01:12:43.090Z,16.70
2022-09-03T01:15:49.257Z,16.70
2022-09-03T01:19:40.935Z,16.50
2022-09-03T01:23:10.184Z,16.70
2022-09-03T01:26:45.227Z,16.70
2022-09-03T01:29:39.706Z,16.60
2022-09-03T01:32:45.039Z,16.40
2022-09-03T01:36:13.174Z,16.40
2022-09-03T01:38:56.445Z,16.50
2022-09-03T01:42:20.448Z,16.40
2022-09-03T01:45:24.962Z,16.40
2022-09-03T01:48:47.239Z,16.30
2022-09-03T01:51:30.548Z,16.30
2022-09-03T01:54:46.243Z,16.30
2022-09-03T01:57:56.140Z,16.20
2022-09-03T02:00:28.217Z,16.20
2022-09-03T02:02:55.755Z,16.10
2022-09-03T02:05:29.343Z,16.00
2022-09-03T02:08:09.013Z,16.00
2022-09-03T02:11:02.119Z,16.00
2022-09-03T02:14:00.003Z,15.90
2022-09-03T02:16:35.283Z,15.70
2022-09-03T02:19:15.848Z,15.80
2022-09-03T02:21:56.567Z,15.60
2022-09-03T02:24:28.262Z,15.60
2022-09-03T02:26:57.205Z,15.50
2022-09-03T02:29:27.207Z,15.50
2022-09-03T02:31:55.583Z,15.50
2022-09-03T02:34:23.175Z,15.50
2022-09-03T02:36:50.774Z,15.50
2022-09-03T02:39:18.359Z,15.50
2022-09-03T02:41:57.595Z,15.60
2022-09-03T02:44:35.665Z,15.60
2022-09-03T02:47:08.920Z,15.60
2022-09-03T02:49:36.815Z,15.50
2022-09-03T02:52:12.080Z,15.50
2022-09-03T02:54:40.937Z,15.40
2022-09-03T02:57:14.659Z,15.30
2022-09-03T02:59:51.133Z,15.20
2022-09-03T03:02:18.895Z,15.20
2022-09-03T03:04:46.516Z,15.10
2022-09-03T03:07:14.012Z,15.00
2022-09-03T03:09:41.524Z,15.10
2022-09-03T03:12:10.368Z,15.10
2022-09-03T03:14:38.074Z,15.10
2022-09-03T03:17:05.915Z,15.00
2022-09-03T03:19:33.478Z,15.10
2022-09-03T03:22:01.012Z,15.10
2022-09-03T03:24:28.829Z,15.10
2022-09-03T03:26:58.388Z,15.10
2022-09-03T03:29:26.226Z,15.30
2022-09-03T03:31:55.062Z,15.30
2022-09-03T03:34:24.051Z,15.20
2022-09-03T03:36:51.690Z,15.20
2022-09-03T03:39:25.235Z,15.20
2022-09-03T03:41:52.824Z,15.20
2022-09-03T03:44:20.400Z,15.10
2022-09-03T03:46:47.968Z,15.10
2022-09-03T03:49:16.019Z,15.10
2022-09-03T03:51:44.224Z,15.00
2022-09-03T03:54:11.724Z,15.10
2022-09-03T03:56:45.051Z,15.10
2022-09-03T03:59:23.428Z,15.10
2022-09-03T04:01:50.936Z,15.10
2022-09-03T04:04:18.502Z,15.20
2022-09-03T04:06:46.033Z,15.00
2022-09-03T04:09:13.566Z,15.10
2022-09-03T04:11:41.027Z,15.00
2022-09-03T04:14:08.498Z,15.10
2022-09-03T04:16:36.101Z,15.00
2022-09-03T04:19:03.706Z,15.00
2022-09-03T04:21:32.080Z,15.00
2022-09-03T04:23:59.732Z,15.00
2022-09-03T04:26:32.893Z,15.00
2022-09-03T04:29:10.044Z,15.00
2022-09-03T04:31:40.150Z,14.90
2022-09-03T04:34:07.655Z,14.90
2022-09-03T04:36:35.273Z,14.90
2022-09-03T04:39:03.485Z,15.00
2022-09-03T04:41:32.557Z,15.00
2022-09-03T04:44:02.157Z,15.00
2022-09-03T04:46:33.951Z,15.00
2022-09-03T04:49:02.882Z,15.00
2022-09-03T04:51:31.897Z,15.00
2022-09-03T04:54:03.581Z,14.90
2022-09-03T04:56:36.114Z,14.90
2022-09-03T04:59:09.663Z,15.00
2022-09-03T05:01:40.972Z,15.10
2022-09-03T05:04:09.749Z,15.10
2022-09-03T05:06:38.448Z,15.20
2022-09-03T05:09:07.286Z,15.20
2022-09-03T05:11:35.825Z,15.20
2022-09-03T05:14:06.549Z,15.20
2022-09-03T05:16:35.803Z,15.20
2022-09-03T05:19:03.852Z,15.30
2022-09-03T05:21:32.527Z,15.30
2022-09-03T05:24:01.938Z,15.40
2022-09-03T05:26:37.801Z,15.40
2022-09-03T05:29:08.275Z,15.40
2022-09-03T05:31:39.822Z,15.50
2022-09-03T05:34:10.750Z,15.50
2022-09-03T05:36:44.300Z,15.50
2022-09-03T05:39:11.817Z,15.60
2022-09-03T05:41:39.300Z,15.60
2022-09-03T05:44:06.780Z,15.60
2022-09-03T05:46:37.584Z,15.70
2022-09-03T05:49:08.342Z,15.70
2022-09-03T05:51:42.584Z,15.70
2022-09-03T05:54:11.343Z,15.80
2022-09-03T05:56:41.379Z,15.80
2022-09-03T05:59:11.922Z,15.90
2022-09-03T06:01:50.410Z,15.90
2022-09-03T06:04:19.355Z,16.00
2022-09-03T06:06:49.079Z,16.00
2022-09-03T06:09:23.372Z,16.10
2022-09-03T06:11:52.562Z,16.20
2022-09-03T06:14:22.190Z,16.30
2022-09-03T06:16:52.622Z,16.30
2022-09-03T06:19:20.631Z,16.40
2022-09-03T06:21:49.503Z,16.50
2022-09-03T06:24:28.235Z,16.50
2022-09-03T06:26:57.779Z,16.60
2022-09-03T06:29:25.728Z,16.80
2022-09-03T06:31:53.245Z,17.60
2022-09-03T06:34:22.762Z,18.20
2022-09-03T06:36:51.326Z,19.20
2022-09-03T06:39:22.501Z,19.70
2022-09-03T06:41:51.965Z,20.10
2022-09-03T06:44:19.482Z,20.50
2022-09-03T06:46:47.335Z,20.80
2022-09-03T06:49:15.720Z,20.90
2022-09-03T06:51:44.146Z,20.90
2022-09-03T06:54:13.366Z,21.10
2022-09-03T06:56:42.478Z,21.30
2022-09-03T06:59:15.729Z,21.30
2022-09-03T07:01:46.283Z,21.80
2022-09-03T07:04:17.027Z,21.60
2022-09-03T07:06:47.890Z,21.80
2022-09-03T07:09:18.331Z,21.80
2022-09-03T07:11:48.412Z,21.80
2022-09-03T07:14:22.281Z,22.20
2022-09-03T07:16:51.003Z,22.20
2022-09-03T07:19:20.056Z,22.40
2022-09-03T07:21:50.570Z,22.80
2022-09-03T07:24:22.410Z,23.20
2022-09-03T07:26:51.756Z,23.60
2022-09-03T07:29:22.679Z,23.80
2022-09-03T07:31:52.629Z,23.80
2022-09-03T07:34:27.258Z,23.70
2022-09-03T07:36:55.365Z,24.00
2022-09-03T07:39:23.223Z,24.10
2022-09-03T07:41:50.880Z,23.80
2022-09-03T07:44:20.116Z,24.10
2022-09-03T07:46:51.783Z,24.60
2022-09-03T07:49:22.226Z,25.00
2022-09-03T07:51:53.240Z,25.20
2022-09-03T07:54:22.320Z,25.30
2022-09-03T07:56:50.239Z,24.80
2022-09-03T07:59:18.260Z,25.10
2022-09-03T08:01:45.777Z,24.70
2022-09-03T08:04:13.567Z,24.60
2022-09-03T08:06:42.336Z,24.90
2022-09-03T08:09:14.017Z,24.90
2022-09-03T08:11:44.067Z,24.60
2022-09-03T08:14:14.907Z,24.50
2022-09-03T08:16:50.155Z,24.50
2022-09-03T08:19:19.182Z,24.80
2022-09-03T08:21:47.307Z,25.10
2022-09-03T08:24:21.933Z,24.90
2022-09-03T08:26:52.002Z,25.30
2022-09-03T08:29:21.936Z,25.40
2022-09-03T08:31:50.330Z,25.60
2022-09-03T08:34:18.249Z,25.70
2022-09-03T08:36:47.931Z,25.70
2022-09-03T08:39:16.861Z,25.80
2022-09-03T08:42:31.732Z,26.00
2022-09-03T08:45:10.350Z,26.20
2022-09-03T08:48:05.483Z,26.10
2022-09-03T08:50:50.180Z,25.90
2022-09-03T08:53:57.458Z,26.10
2022-09-03T08:56:39.837Z,26.10
2022-09-03T08:59:08.616Z,26.60
2022-09-03T09:02:00.479Z,27.10
2022-09-03T09:04:58.105Z,26.80
2022-09-03T09:08:15.197Z,26.40
2022-09-03T09:11:15.312Z,25.80
2022-09-03T09:14:40.197Z,26.10
2022-09-03T09:17:28.109Z,26.10
2022-09-03T09:20:38.713Z,26.20
2022-09-03T09:23:15.107Z,26.00
2022-09-03T09:25:51.744Z,26.50
2022-09-03T09:28:37.836Z,26.60
2022-09-03T09:31:12.681Z,26.50
2022-09-03T09:33:40.280Z,26.50
2022-09-03T09:36:16.511Z,26.80
2022-09-03T09:38:49.640Z,26.80
2022-09-03T09:41:28.926Z,26.20
2022-09-03T09:44:05.384Z,26.00
2022-09-03T09:46:42.341Z,25.70
2022-09-03T09:49:37.185Z,25.00
2022-09-03T09:52:15.425Z,24.60
2022-09-03T09:54:46.431Z,24.50
2022-09-03T09:57:40.544Z,24.40
2022-09-03T10:00:16.935Z,24.60
2022-09-03T10:02:55.912Z,24.90
2022-09-03T10:08:25.342Z,24.80
2022-09-03T10:10:53.258Z,24.70
2022-09-03T10:13:46.204Z,24.60
2022-09-03T10:16:49.012Z,24.40
2022-09-03T10:20:31.281Z,24.60
2022-09-03T10:23:25.749Z,24.60
2022-09-03T10:26:21.948Z,24.70
2022-09-03T10:28:55.933Z,25.00
2022-09-03T10:32:10.225Z,25.10
2022-09-03T10:35:19.487Z,25.20
2022-09-03T10:38:34.647Z,24.80
2022-09-03T10:42:03.899Z,24.60
2022-09-03T10:45:25.394Z,24.80
2022-09-03T10:48:42.578Z,24.90
2022-09-03T10:51:54.698Z,25.00
2022-09-03T10:55:18.501Z,25.00
2022-09-03T10:58:23.810Z,25.10
2022-09-03T11:01:33.427Z,25.30
2022-09-03T11:05:08.169Z,25.30
2022-09-03T11:08:12.814Z,25.60
2022-09-03T11:10:56.362Z,25.40
2022-09-03T11:14:17.303Z,25.50
2022-09-03T11:17:03.167Z,25.50
2022-09-03T11:19:56.758Z,25.20
2022-09-03T11:22:27.330Z,25.30
2022-09-03T11:25:03.129Z,25.40
2022-09-03T11:27:42.761Z,25.40
2022-09-03T11:30:29.459Z,25.70
2022-09-03T11:33:11.800Z,25.70
2022-09-03T11:35:43.734Z,25.50
2022-09-03T11:38:17.213Z,25.70
2022-09-03T11:41:15.756Z,25.60
2022-09-03T11:43:44.615Z,25.90
2022-09-03T11:46:23.537Z,25.80
2022-09-03T11:49:12.030Z,25.90
2022-09-03T11:51:45.110Z,26.20
2022-09-03T11:54:21.098Z,26.80
2022-09-03T11:57:41.401Z,27.30
2022-09-03T12:00:31.188Z,27.40
2022-09-03T12:03:24.593Z,27.20
2022-09-03T12:07:33.006Z,27.10
2022-09-03T12:11:05.614Z,27.00
2022-09-03T12:14:30.564Z,27.10
2022-09-03T12:18:17.273Z,27.50
2022-09-03T12:21:02.530Z,27.30
2022-09-03T12:23:58.037Z,26.90
2022-09-03T12:26:27.826Z,26.90
2022-09-03T12:29:01.047Z,26.70
2022-09-03T12:31:53.079Z,26.60
2022-09-03T12:34:21.757Z,26.30
2022-09-03T12:36:54.750Z,26.20
2022-09-03T12:42:30.831Z,26.20
2022-09-03T12:45:12.830Z,26.00
2022-09-03T12:47:43.035Z,25.80
2022-09-03T12:50:16.895Z,25.80
2022-09-03T12:53:03.378Z,25.90
2022-09-03T12:56:01.159Z,26.00
2022-09-03T12:59:08.635Z,25.90
2022-09-03T13:02:06.861Z,25.70
2022-09-03T13:04:39.968Z,25.70
2022-09-03T13:07:33.711Z,26.00
2022-09-03T13:10:31.461Z,26.00
2022-09-03T13:13:16.521Z,25.90
2022-09-03T13:16:56.307Z,25.90
2022-09-03T13:20:21.324Z,26.00
2022-09-03T13:23:54.211Z,25.80
2022-09-03T13:26:59.492Z,25.90
2022-09-03T13:30:20.012Z,25.80
2022-09-03T13:33:39.103Z,25.80
2022-09-03T13:36:37.121Z,25.70
2022-09-03T13:39:51.174Z,25.80
2022-09-03T13:42:48.125Z,25.80
2022-09-03T13:45:40.160Z,26.00
2022-09-03T13:49:03.528Z,25.70
2022-09-03T13:52:32.076Z,25.50
2022-09-03T13:55:52.989Z,25.70
2022-09-03T13:58:59.125Z,25.60
2022-09-03T14:02:05.118Z,25.70
2022-09-03T14:05:06.778Z,25.90
2022-09-03T14:07:58.122Z,25.80
2022-09-03T14:11:09.586Z,25.90
2022-09-03T14:14:32.271Z,26.10
2022-09-03T14:17:38.254Z,25.90
2022-09-03T14:20:59.093Z,26.00
2022-09-03T14:24:14.538Z,26.10
2022-09-03T14:27:03.440Z,26.10
2022-09-03T14:29:36.713Z,26.00
2022-09-03T14:32:49.565Z,25.90
2022-09-03T14:36:03.455Z,26.00
2022-09-03T14:39:39.700Z,26.00
2022-09-03T14:42:07.129Z,26.30
2022-09-03T14:45:37.412Z,26.80
2022-09-03T14:49:26.869Z,26.80
2022-09-03T14:52:28.824Z,26.90
2022-09-03T14:55:55.052Z,26.60
2022-09-03T14:58:58.615Z,26.70
2022-09-03T15:01:39.953Z,26.60
2022-09-03T15:05:28.140Z,26.40
2022-09-03T15:08:14.344Z,26.80
2022-09-03T15:11:15.761Z,26.80
2022-09-03T15:14:19.485Z,26.90
2022-09-03T15:17:41.149Z,27.00
2022-09-03T15:21:15.974Z,26.60
2022-09-03T15:24:20.480Z,26.30
2022-09-03T15:27:48.062Z,26.40
2022-09-03T15:30:20.249Z,26.30
2022-09-03T15:33:12.171Z,26.30
2022-09-03T15:36:03.141Z,26.20
2022-09-03T15:39:09.122Z,25.90
2022-09-03T15:41:59.900Z,25.70
2022-09-03T15:44:46.038Z,25.50
2022-09-03T15:48:04.108Z,25.30
2022-09-03T15:51:23.427Z,25.40
2022-09-03T15:54:31.441Z,25.30
2022-09-03T15:57:26.323Z,25.30
2022-09-03T16:00:08.912Z,25.10
2022-09-03T16:03:01.507Z,25.00
2022-09-03T16:06:28.263Z,25.00
2022-09-03T16:09:10.201Z,24.90
2022-09-03T16:12:37.518Z,24.80
2022-09-03T16:16:05.436Z,25.00
2022-09-03T16:19:51.670Z,25.00
2022-09-03T16:23:13.387Z,25.00
2022-09-03T16:26:13.457Z,25.00
2022-09-03T16:29:01.437Z,25.10
2022-09-03T16:32:05.016Z,25.30
2022-09-03T16:35:30.993Z,25.40
2022-09-03T16:39:17.465Z,25.50
2022-09-03T16:42:44.801Z,25.60
2022-09-03T16:46:07.096Z,25.70
2022-09-03T16:49:04.043Z,25.60
2022-09-03T16:52:38.516Z,25.40
2022-09-03T16:56:11.044Z,25.20
2022-09-03T16:59:54.452Z,25.20
2022-09-03T17:03:25.083Z,25.00
2022-09-03T17:06:51.311Z,25.30
2022-09-03T17:09:49.431Z,25.50
2022-09-03T17:13:36.650Z,25.40
2022-09-03T17:17:05.454Z,25.30
2022-09-03T17:20:29.969Z,25.30
2022-09-03T17:23:48.139Z,25.20
2022-09-03T17:27:09.866Z,25.10
2022-09-03T17:30:09.632Z,25.00
2022-09-03T17:33:36.488Z,25.00
2022-09-03T17:36:21.444Z,24.90
2022-09-03T17:39:53.956Z,24.90
2022-09-03T17:42:49.361Z,24.70
2022-09-03T17:45:58.504Z,24.60
2022-09-03T17:48:56.584Z,24.30
2022-09-03T17:52:30.520Z,24.10
2022-09-03T17:55:16.165Z,23.90
2022-09-03T17:58:16.520Z,23.80
2022-09-03T18:01:17.180Z,23.70
2022-09-03T18:05:01.828Z,23.60
2022-09-03T18:08:08.796Z,23.40
2022-09-03T18:11:02.877Z,23.30
2022-09-03T18:14:34.059Z,23.20
2022-09-03T18:17:18.179Z,23.10
2022-09-03T18:20:34.028Z,22.90
2022-09-03T18:24:24.256Z,22.80
2022-09-03T18:27:39.666Z,22.60
2022-09-03T18:30:35.249Z,22.40
2022-09-03T18:33:22.131Z,22.30
2022-09-03T18:36:08.186Z,22.30
2022-09-03T18:38:58.714Z,22.20
2022-09-03T18:43:05.164Z,22.10
2022-09-03T18:47:22.531Z,22.00
2022-09-03T18:50:03.210Z,21.80
2022-09-03T18:53:47.811Z,21.70
2022-09-03T18:57:08.578Z,21.70
2022-09-03T19:00:32.428Z,21.60
2022-09-03T19:03:57.537Z,21.50
2022-09-03T19:07:26.184Z,21.50
2022-09-03T19:10:47.440Z,21.30
2022-09-03T19:13:58.707Z,21.20
2022-09-03T19:17:39.804Z,21.20
2022-09-03T19:20:47.411Z,21.10
2022-09-03T19:23:33.621Z,21.00
2022-09-03T19:27:23.644Z,21.00
2022-09-03T19:30:50.402Z,20.90
2022-09-03T19:34:12.224Z,20.80
2022-09-03T19:37:48.444Z,20.70
2022-09-03T19:41:54.268Z,20.70
2022-09-03T19:45:17.977Z,20.80
2022-09-03T19:48:35.930Z,20.80
2022-09-03T19:51:41.860Z,20.80
2022-09-03T19:54:28.539Z,20.70
2022-09-03T19:57:17.097Z,20.60
2022-09-03T20:00:09.282Z,20.60
2022-09-03T20:02:58.030Z,20.50
2022-09-03T20:05:44.994Z,20.50
2022-09-03T20:08:36.637Z,20.40
2022-09-03T20:11:10.428Z,20.30
2022-09-03T20:13:58.833Z,20.20
2022-09-03T20:17:17.543Z,20.10
2022-09-03T20:20:29.314Z,20.10
2022-09-03T20:23:02.877Z,20.10
2022-09-03T20:26:23.694Z,20.10
2022-09-03T20:29:38.293Z,20.10
2022-09-03T20:32:54.128Z,19.90
2022-09-03T20:35:58.740Z,20.00
2022-09-03T20:38:40.912Z,20.00
2022-09-03T20:41:53.164Z,20.20
2022-09-03T20:45:19.422Z,20.10
2022-09-03T20:48:25.401Z,20.00
2022-09-03T20:51:22.760Z,19.70
2022-09-03T20:54:33.783Z,19.50
2022-09-03T20:57:44.954Z,19.40
2022-09-03T21:00:18.981Z,19.30
2022-09-03T21:04:11.383Z,19.20
2022-09-03T21:07:04.245Z,19.20
2022-09-03T21:10:22.612Z,19.10
2022-09-03T21:13:52.032Z,19.10
2022-09-03T21:17:09.412Z,19.10
2022-09-03T21:20:22.856Z,19.00
2022-09-03T21:23:40.129Z,19.10
2022-09-03T21:26:31.850Z,19.00
2022-09-03T21:29:39.908Z,19.00
2022-09-03T21:32:33.682Z,18.90
2022-09-03T21:35:35.964Z,18.80
2022-09-03T21:38:16.820Z,18.70
2022-09-03T21:41:34.432Z,18.70
2022-09-03T21:44:47.985Z,18.60
2022-09-03T21:47:21.441Z,18.70
2022-09-03T21:50:25.851Z,18.60
2022-09-03T21:53:16.997Z,18.60
2022-09-03T21:56:21.776Z,18.50
2022-09-03T22:00:18.882Z,18.40
2022-09-03T22:02:49.956Z,18.30
2022-09-03T22:05:19.117Z,18.20
2022-09-03T22:08:13.087Z,18.20
2022-09-03T22:11:24.401Z,18.10
2022-09-03T22:14:11.441Z,18.00
2022-09-03T22:17:02.888Z,17.90
2022-09-03T22:19:37.525Z,17.80
2022-09-03T22:22:45.019Z,17.70
2022-09-03T22:25:50.625Z,17.70
2022-09-03T22:29:25.609Z,17.60
2022-09-03T22:32:38.326Z,17.60
2022-09-03T22:35:47.719Z,17.70
2022-09-03T22:39:03.040Z,17.70
2022-09-03T22:42:26.157Z,17.70
2022-09-03T22:45:47.327Z,18.00
2022-09-03T22:48:59.761Z,18.30
2022-09-03T22:52:21.783Z,18.30
2022-09-03T22:55:10.313Z,18.20
2022-09-03T22:57:57.289Z,18.20
2022-09-03T23:00:25.942Z,18.10
2022-09-03T23:03:19.753Z,17.90
2022-09-03T23:06:14.245Z,17.80
2022-09-03T23:09:17.685Z,17.70
2022-09-03T23:12:11.147Z,17.70
2022-09-03T23:14:56.571Z,17.60
2022-09-03T23:17:38.878Z,17.50
2022-09-03T23:20:28.501Z,17.40
2022-09-03T23:23:18.080Z,17.30
2022-09-03T23:26:23.466Z,17.30
2022-09-03T23:29:16.699Z,17.30
2022-09-03T23:31:44.520Z,17.20
2022-09-03T23:34:13.657Z,17.30
2022-09-03T23:37:36.954Z,17.30
2022-09-03T23:40:43.698Z,17.40
2022-09-03T23:43:39.504Z,17.50
2022-09-03T23:47:13.567Z,17.70
2022-09-03T23:50:43.332Z,17.80
2022-09-03T23:54:11.498Z,17.80
2022-09-03T23:57:40.056Z,17.60
